| time (UTC) | temp F | wind direction | speed MPH | gust MPH | rain 1hr in | rain 24hr in | rain mn in | humidity % | barometer mb |
| 20260510225408 | 66 | 182 | 1.0 | 2.0 | 0.00 | 0.00 | 0.00 | 72 | 1012.0 |
| 20260510224406 | 65 | 108 | 0.0 | 2.0 | 0.00 | 0.00 | 0.00 | 73 | 1011.8 |
| 20260510223406 | 66 | 185 | 2.0 | 2.0 | 0.00 | 0.00 | 0.00 | 72 | 1011.9 |
| 20260510222401 | 65 | 121 | 2.0 | 2.0 | 0.00 | 0.00 | 0.00 | 73 | 1011.9 |
| 20260510221359 | 65 | 172 | 0.0 | 2.0 | 0.00 | 0.00 | 0.00 | 73 | 1011.6 |
| 20260510220357 | 65 | 117 | 2.0 | 2.0 | 0.00 | 0.00 | 0.00 | 77 | 1011.8 |
| 20260510215356 | 64 | 116 | 2.0 | 3.0 | 0.00 | 0.00 | 0.00 | 79 | 1011.8 |
| 20260510214351 | 64 | 168 | 3.0 | 3.0 | 0.00 | 0.00 | 0.00 | 85 | 1011.5 |
| 20260510213350 | 65 | 157 | 2.0 | 2.0 | 0.00 | 0.00 | 0.00 | 75 | 1011.9 |
| 20260510212349 | 65 | 157 | 2.0 | 2.0 | 0.00 | 0.00 | 0.00 | 75 | 1011.7 |
| 20260510211349 | 64 | 257 | 4.0 | 5.0 | 0.00 | 0.00 | 0.00 | 77 | 1011.4 |
| 20260510210346 | 64 | 257 | 4.0 | 5.0 | 0.00 | 0.00 | 0.00 | 77 | 1011.4 |
| 20260510205346 | 64 | 257 | 4.0 | 5.0 | 0.00 | 0.00 | 0.00 | 77 | 1011.6 |
| 20260510204344 | 66 | 223 | 3.0 | 3.0 | 0.02 | 0.00 | 0.00 | 79 | 1011.5 |
| 20260510203344 | 69 | 212 | 3.0 | 3.0 | 0.00 | 0.00 | 0.00 | 74 | 1010.9 |
| 20260510202340 | 69 | 212 | 3.0 | 3.0 | 0.00 | 0.00 | 0.00 | 74 | 1010.7 |
| 20260510201340 | 69 | 207 | 5.0 | 8.0 | 0.00 | 0.00 | 0.00 | 74 | 1010.6 |
| 20260510200335 | 69 | 169 | 4.0 | 6.0 | 0.00 | 0.00 | 0.00 | 73 | 1010.8 |
| 20260510195333 | 70 | 217 | 5.0 | 6.0 | 0.00 | 0.00 | 0.00 | 73 | 1010.8 |
| 20260510194331 | 70 | 136 | 1.0 | 4.0 | 0.00 | 0.00 | 0.00 | 74 | 1010.7 |
| 20260510193327 | 70 | 216 | 8.0 | 9.0 | 0.00 | 0.00 | 0.00 | 71 | 1011.0 |
| 20260510192325 | 70 | 213 | 7.0 | 9.0 | 0.00 | 0.00 | 0.00 | 72 | 1010.8 |
| 20260510191323 | 70 | 203 | 3.0 | 4.0 | 0.00 | 0.00 | 0.00 | 72 | 1010.9 |
| 20260510190318 | 71 | 203 | 5.0 | 8.0 | 0.00 | 0.00 | 0.00 | 70 | 1011.0 |
| 20260510185318 | 71 | 217 | 2.0 | 6.0 | 0.00 | 0.00 | 0.00 | 69 | 1011.1 |
| 20260510184318 | 72 | 217 | 5.0 | 8.0 | 0.00 | 0.00 | 0.00 | 68 | 1011.1 |
| 20260510183314 | 72 | 117 | 3.0 | 6.0 | 0.00 | 0.00 | 0.00 | 68 | 1011.2 |
| 20260510182313 | 71 | 189 | 4.0 | 4.0 | 0.00 | 0.00 | 0.00 | 69 | 1011.3 |
| 20260510181311 | 71 | 140 | 6.0 | 6.0 | 0.00 | 0.00 | 0.00 | 69 | 1011.4 |
| 20260510180310 | 71 | 224 | 9.0 | 11.0 | 0.00 | 0.00 | 0.00 | 68 | 1011.4 |
| 20260510175309 | 72 | 212 | 4.0 | 6.0 | 0.00 | 0.00 | 0.00 | 69 | 1011.4 |
| 20260510174303 | 70 | 133 | 6.0 | 6.0 | 0.00 | 0.00 | 0.00 | 72 | 1011.0 |
| 20260510173300 | 68 | 138 | 11.0 | 13.0 | 0.00 | 0.00 | 0.00 | 73 | 1011.0 |
| 20260510172258 | 70 | 132 | 4.0 | 7.0 | 0.00 | 0.00 | 0.00 | 73 | 1011.2 |
| 20260510171257 | 68 | 137 | 3.0 | 4.0 | 0.00 | 0.00 | 0.00 | 75 | 1011.4 |
| 20260510170256 | 69 | 126 | 5.0 | 11.0 | 0.00 | 0.00 | 0.00 | 74 | 1011.3 |
| 20260510165254 | 68 | 131 | 6.0 | 7.0 | 0.00 | 0.00 | 0.00 | 76 | 1011.3 |
| 20260510164255 | 68 | 137 | 8.0 | 8.0 | 0.00 | 0.00 | 0.00 | 75 | 1011.3 |
| 20260510163250 | 68 | 163 | 4.0 | 6.0 | 0.00 | 0.00 | 0.00 | 75 | 1011.5 |
| 20260510162248 | 68 | 163 | 4.0 | 8.0 | 0.00 | 0.00 | 0.00 | 75 | 1011.7 |
| 20260510161245 | 66 | 176 | 2.0 | 2.0 | 0.00 | 0.00 | 0.00 | 81 | 1011.6 |
| 20260510160244 | 66 | 100 | 2.0 | 2.0 | 0.00 | 0.00 | 0.00 | 80 | 1011.6 |
| 20260510155242 | 65 | 124 | 7.0 | 13.0 | 0.00 | 0.00 | 0.00 | 79 | 1011.9 |
| 20260510154239 | 64 | 153 | 2.0 | 4.0 | 0.00 | 0.00 | 0.00 | 81 | 1011.9 |
| 20260510153236 | 64 | 149 | 3.0 | 5.0 | 0.00 | 0.00 | 0.00 | 80 | 1012.2 |
| 20260510152235 | 63 | 197 | 4.0 | 8.0 | 0.00 | 0.00 | 0.00 | 82 | 1012.1 |
| 20260510151231 | 64 | 123 | 6.0 | 6.0 | 0.00 | 0.00 | 0.00 | 80 | 1012.1 |
| 20260510150227 | 63 | 178 | 4.0 | 4.0 | 0.00 | 0.00 | 0.00 | 82 | 1012.1 |
| 20260510145226 | 62 | 121 | 3.0 | 4.0 | 0.00 | 0.00 | 0.00 | 84 | 1012.1 |
| 20260510144226 | 60 | 172 | 2.0 | 3.0 | 0.00 | 0.00 | 0.00 | 87 | 1011.9 |
| 20260510143223 | 62 | 206 | 5.0 | 5.0 | 0.00 | 0.00 | 0.00 | 85 | 1012.1 |
| 20260510142221 | 57 | 111 | 2.0 | 2.0 | 0.00 | 0.00 | 0.00 | 93 | 1012.0 |
| 20260510141217 | 57 | 111 | 2.0 | 2.0 | 0.00 | 0.00 | 0.00 | 93 | 1012.0 |
| 20260510140213 | 57 | 111 | 2.0 | 2.0 | 0.00 | 0.00 | 0.00 | 93 | 1012.1 |
| 20260510135210 | 57 | 111 | 3.0 | 4.0 | 0.00 | 0.00 | 0.00 | 93 | 1011.7 |
| 20260510134205 | 57 | 112 | 3.0 | 4.0 | 0.00 | 0.00 | 0.00 | 93 | 1011.8 |
| 20260510133202 | 57 | 107 | 3.0 | 3.0 | 0.00 | 0.00 | 0.00 | 92 | 1011.7 |
| 20260510132201 | 56 | 111 | 2.0 | 4.0 | 0.00 | 0.00 | 0.00 | 92 | 1012.0 |
| 20260510131157 | 56 | 120 | 2.0 | 3.0 | 0.00 | 0.00 | 0.00 | 93 | 1011.8 |
| 20260510130156 | 55 | 50 | 2.0 | 2.0 | 0.00 | 0.00 | 0.00 | 96 | 1011.9 |
| 20260510125154 | 55 | 50 | 2.0 | 2.0 | 0.00 | 0.00 | 0.00 | 96 | 1011.8 |
| 20260510124154 | 55 | 50 | 2.0 | 2.0 | 0.00 | 0.00 | 0.00 | 96 | 1011.8 |
| 20260510123152 | 54 | 95 | 1.0 | 1.0 | 0.00 | 0.00 | 0.00 | 99 | 1011.8 |
| 20260510122150 | 54 | 80 | 3.0 | 3.0 | 0.00 | 0.00 | 0.00 | 99 | 1011.6 |
| 20260510121150 | 54 | 99 | 2.0 | 3.0 | 0.00 | 0.00 | 0.00 | 99 | 1011.4 |
| 20260510120149 | 53 | 98 | 2.0 | 3.0 | 0.00 | 0.00 | 0.00 | 99 | 1011.4 |
| 20260510115150 | 53 | 108 | 3.0 | 4.0 | 0.00 | 0.00 | 0.00 | 99 | 1011.2 |
| 20260510114147 | 52 | 105 | 4.0 | 4.0 | 0.00 | 0.00 | 0.00 | 99 | 1011.3 |
| 20260510113146 | 52 | 103 | 2.0 | 3.0 | 0.00 | 0.00 | 0.00 | 99 | 1011.5 |
| 20260510112146 | 52 | 103 | 2.0 | 3.0 | 0.00 | 0.00 | 0.00 | 99 | 1011.3 |
| 20260510111144 | 52 | 112 | 4.0 | 4.0 | 0.00 | 0.00 | 0.00 | 99 | 1011.0 |
| 20260510110143 | 52 | 112 | 4.0 | 4.0 | 0.00 | 0.00 | 0.00 | 99 | 1011.0 |
| 20260510105138 | 52 | 112 | 4.0 | 4.0 | 0.00 | 0.00 | 0.00 | 99 | 1010.8 |
| 20260510104137 | 52 | 112 | 4.0 | 4.0 | 0.00 | 0.00 | 0.00 | 99 | 1010.8 |
| 20260510103137 | 51 | 118 | 3.0 | 3.0 | 0.00 | 0.00 | 0.00 | 99 | 1010.5 |
| 20260510102134 | 51 | 95 | 2.0 | 2.0 | 0.00 | 0.00 | 0.00 | 99 | 1010.4 |
| 20260510101129 | 51 | 108 | 3.0 | 3.0 | 0.00 | 0.00 | 0.00 | 99 | 1010.6 |
| 20260510100128 | 51 | 119 | 3.0 | 4.0 | 0.00 | 0.00 | 0.00 | 99 | 1010.8 |
| 20260510095124 | 51 | 119 | 3.0 | 4.0 | 0.00 | 0.00 | 0.00 | 99 | 1010.8 |
| 20260510094124 | 51 | 119 | 3.0 | 4.0 | 0.00 | 0.00 | 0.00 | 99 | 1010.9 |
| 20260510093124 | 0 | 0.0 | 0.0 | 0.00 | 0.00 | 0.00 | 1010.8 | ||
| 20260510092121 | 0 | 0.0 | 0.0 | 0.00 | 0.00 | 0.00 | 1010.9 | ||
| 20260510091119 | 0 | 0.0 | 0.0 | 0.00 | 0.00 | 0.00 | 1010.8 | ||
| 20260510090118 | 0 | 0.0 | 0.0 | 0.00 | 0.00 | 0.00 | 1011.1 | ||
| 20260510085115 | 0 | 0.0 | 0.0 | 0.00 | 0.00 | 0.00 | 1011.0 | ||
| 20260510084114 | 0 | 0.0 | 0.0 | 0.00 | 0.00 | 0.00 | 1010.9 | ||
| 20260510083112 | 0 | 0.0 | 0.0 | 0.00 | 0.00 | 0.00 | 1011.0 | ||
| 20260510082111 | 0 | 0.0 | 0.0 | 0.00 | 0.00 | 0.00 | 1010.7 | ||
| 20260510081108 | 0 | 0.0 | 0.0 | 0.00 | 0.00 | 0.00 | 1010.6 | ||
| 20260510080104 | 0 | 0.0 | 0.0 | 0.00 | 0.00 | 0.00 | 1010.7 | ||
| 20260510075104 | 0 | 0.0 | 0.0 | 0.00 | 0.00 | 0.00 | 1010.4 | ||
| 20260510074102 | 0 | 0.0 | 0.0 | 0.00 | 0.00 | 0.00 | 1010.6 | ||
| 20260510073102 | 0 | 0.0 | 0.0 | 0.00 | 0.00 | 0.00 | 1010.5 | ||
| 20260510072100 | 0 | 0.0 | 0.0 | 0.00 | 0.00 | 0.00 | 1010.5 | ||
| 20260510071100 | 0 | 0.0 | 0.0 | 0.00 | 0.00 | 0.00 | 1010.5 | ||
| 20260510070100 | 0 | 0.0 | 0.0 | 0.00 | 0.00 | 0.00 | 1010.6 | ||
| 20260510065058 | 0 | 0.0 | 0.0 | 0.00 | 0.00 | 0.00 | 1010.8 | ||
| 20260510064058 | 0 | 0.0 | 0.0 | 0.00 | 0.00 | 0.00 | 1010.5 | ||
| 20260510063057 | 0 | 0.0 | 0.0 | 0.00 | 0.00 | 0.00 | 1010.2 | ||
| 20260510062054 | 0 | 0.0 | 0.0 | 0.00 | 0.00 | 0.00 | 1010.0 | ||
| 20260510061054 | 0 | 0.0 | 0.0 | 0.00 | 0.00 | 0.00 | 1010.0 | ||
| 20260510060052 | 0 | 0.0 | 0.0 | 0.00 | 0.00 | 0.00 | 1009.9 | ||
| 20260510055052 | 0 | 0.0 | 0.0 | 0.00 | 0.00 | 0.00 | 1010.1 | ||
| 20260510054049 | 0 | 0.0 | 0.0 | 0.00 | 0.00 | 0.00 | 1010.3 | ||
| 20260510053046 | 0 | 0.0 | 0.0 | 0.00 | 0.00 | 0.00 | 1010.4 | ||
| 20260510052044 | 0 | 0.0 | 0.0 | 0.00 | 0.00 | 0.00 | 1010.5 | ||
| 20260510051042 | 0 | 0.0 | 0.0 | 0.00 | 0.00 | 0.00 | 1010.1 | ||
| 20260510050042 | 0 | 0.0 | 0.0 | 0.00 | 0.00 | 0.00 | 1010.4 | ||
| 20260510045041 | 0 | 0.0 | 0.0 | 0.00 | 0.00 | 0.00 | 1010.5 | ||
| 20260510044036 | 0 | 0.0 | 0.0 | 0.00 | 0.00 | 0.00 | 1010.4 | ||
| 20260510043033 | 0 | 0.0 | 0.0 | 0.00 | 0.00 | 0.00 | 1010.4 | ||
| 20260510042027 | 0 | 0.0 | 0.0 | 0.00 | 0.00 | 0.00 | 1010.3 | ||
| 20260510041022 | 0 | 0.0 | 0.0 | 0.00 | 0.00 | 0.00 | 1010.1 | ||
| 20260510040020 | 0 | 0.0 | 0.0 | 0.00 | 0.59 | 0.59 | 1010.2 | ||
| 20260510035016 | 0 | 0.0 | 0.0 | 0.00 | 0.59 | 0.59 | 1010.1 | ||
| 20260510034011 | 0 | 0.0 | 0.0 | 0.00 | 0.59 | 0.59 | 1010.3 | ||
| 20260510033006 | 0 | 0.0 | 0.0 | 0.00 | 0.59 | 0.59 | 1010.4 | ||
| 20260510032002 | 0 | 0.0 | 0.0 | 0.00 | 0.59 | 0.59 | 1010.4 | ||
| 20260510031000 | 0 | 0.0 | 0.0 | 0.00 | 0.59 | 0.59 | 1010.3 | ||
| 20260510025958 | 0 | 0.0 | 0.0 | 0.00 | 0.59 | 0.59 | 1010.4 | ||
| 20260510024953 | 0 | 0.0 | 0.0 | 0.00 | 0.59 | 0.59 | 1010.2 | ||
| 20260510023951 | 0 | 0.0 | 0.0 | 0.00 | 0.59 | 0.59 | 1010.0 | ||
| 20260510022951 | 0 | 0.0 | 0.0 | 0.00 | 0.59 | 0.59 | 1010.2 | ||
| 20260510021949 | 0 | 0.0 | 0.0 | 0.00 | 0.59 | 0.59 | 1010.3 | ||
| 20260510020944 | 0 | 0.0 | 0.0 | 0.00 | 0.59 | 0.59 | 1010.3 | ||
| 20260510015940 | 0 | 0.0 | 0.0 | 0.00 | 0.59 | 0.59 | 1010.3 | ||
| 20260510014937 | 0 | 0.0 | 0.0 | 0.00 | 0.59 | 0.59 | 1010.1 | ||
| 20260510013938 | 0 | 0.0 | 0.0 | 0.00 | 0.59 | 0.59 | 1010.2 | ||
| 20260510012934 | 0 | 0.0 | 0.0 | 0.00 | 0.59 | 0.59 | 1010.2 | ||
| 20260510011930 | 0 | 0.0 | 0.0 | 0.00 | 0.59 | 0.59 | 1010.2 | ||
| 20260510010927 | 0 | 0.0 | 0.0 | 0.00 | 0.59 | 0.59 | 1010.1 | ||
| 20260510005927 | 0 | 0.0 | 0.0 | 0.00 | 0.59 | 0.59 | 1010.3 | ||
| 20260510004927 | 0 | 0.0 | 0.0 | 0.00 | 0.59 | 0.59 | 1009.9 | ||
| 20260510003922 | 0 | 0.0 | 0.0 | 0.00 | 0.59 | 0.59 | 1009.8 | ||
| 20260510002918 | 0 | 0.0 | 0.0 | 0.00 | 0.59 | 0.59 | 1009.7 | ||
| 20260510001917 | 0 | 0.0 | 0.0 | 0.00 | 0.59 | 0.59 | 1009.6 | ||
| 20260510000912 | 0 | 0.0 | 0.0 | 0.00 | 0.59 | 0.59 | 1009.5 | ||
| 20260509235911 | 0 | 0.0 | 0.0 | 0.00 | 0.59 | 0.59 | 1009.5 | ||
| 20260509234910 | 0 | 0.0 | 0.0 | 0.00 | 0.59 | 0.59 | 1009.6 | ||
| 20260509233905 | 0 | 0.0 | 0.0 | 0.05 | 0.59 | 0.59 | 1009.5 | ||
| 20260509232904 | 0 | 0.0 | 0.0 | 0.02 | 0.58 | 0.58 | 1009.8 | ||
| 20260509231903 | 0 | 0.0 | 0.0 | 0.09 | 0.58 | 0.58 | 1009.8 | ||
| 20260509230858 | 52 | 98 | 2.0 | 2.0 | 0.07 | 0.56 | 0.56 | 99 | 1010.2 |
| 20260509225856 | 52 | 98 | 2.0 | 2.0 | 0.12 | 0.55 | 0.55 | 99 | 1010.3 |